createdAt,value
2023-03-20T00:02:09.184Z,44.30
2023-03-20T00:05:22.011Z,44.46
2023-03-20T00:08:29.717Z,43.83
2023-03-20T00:11:48.418Z,44.42
2023-03-20T00:14:54.014Z,44.00
2023-03-20T00:18:01.271Z,43.91
2023-03-20T00:21:06.947Z,43.94
2023-03-20T00:24:13.178Z,43.81
2023-03-20T00:27:21.596Z,43.59
2023-03-20T00:30:32.852Z,44.46
2023-03-20T00:33:38.417Z,43.78
2023-03-20T00:36:44.994Z,44.40
2023-03-20T00:39:50.597Z,44.26
2023-03-20T00:43:05.051Z,44.12
2023-03-20T00:46:17.487Z,44.28
2023-03-20T00:49:29.943Z,44.58
2023-03-20T00:52:36.231Z,44.46
2023-03-20T00:55:44.181Z,44.54
2023-03-20T00:58:54.250Z,44.47
2023-03-20T01:02:00.799Z,44.43
2023-03-20T01:05:07.237Z,44.20
2023-03-20T01:08:18.756Z,44.25
2023-03-20T01:11:28.014Z,44.66
2023-03-20T01:14:37.958Z,44.45
2023-03-20T01:17:43.300Z,44.48
2023-03-20T01:20:53.082Z,44.78
2023-03-20T01:23:58.441Z,44.19
2023-03-20T01:27:06.179Z,44.09
2023-03-20T01:30:28.564Z,44.59
2023-03-20T01:33:34.813Z,44.13
2023-03-20T01:36:42.146Z,44.50
2023-03-20T01:39:48.762Z,43.81
2023-03-20T01:42:55.057Z,44.17
2023-03-20T01:46:21.573Z,44.32
2023-03-20T01:50:22.554Z,43.87
2023-03-20T01:53:33.697Z,43.90
2023-03-20T01:56:49.841Z,44.27
2023-03-20T02:00:06.493Z,43.72
2023-03-20T02:03:27.559Z,44.17
2023-03-20T02:06:48.674Z,44.33
2023-03-20T02:10:05.458Z,43.75
2023-03-20T02:13:21.601Z,44.04
2023-03-20T02:16:28.169Z,43.78
2023-03-20T02:20:14.147Z,43.41
2023-03-20T02:24:06.345Z,43.74
2023-03-20T02:27:31.367Z,44.15
2023-03-20T02:31:09.208Z,43.64
2023-03-20T02:35:26.101Z,43.97
2023-03-20T02:39:02.697Z,43.92
2023-03-20T02:42:23.156Z,43.45
2023-03-20T02:45:37.895Z,44.14
2023-03-20T02:49:04.447Z,43.80
2023-03-20T02:52:25.357Z,44.47
2023-03-20T02:55:47.226Z,43.89
2023-03-20T02:59:05.637Z,44.76
2023-03-20T03:02:19.881Z,44.53
2023-03-20T03:05:37.972Z,44.92
2023-03-20T03:08:54.848Z,44.81
2023-03-20T03:12:10.940Z,44.76
2023-03-20T03:15:26.173Z,44.01
2023-03-20T03:18:36.906Z,44.37
2023-03-20T03:21:44.654Z,44.48
2023-03-20T03:24:53.922Z,44.53
2023-03-20T03:28:12.078Z,44.34
2023-03-20T03:31:22.083Z,44.62
2023-03-20T03:34:28.743Z,45.04
2023-03-20T03:37:54.188Z,44.40
2023-03-20T03:41:21.691Z,44.58
2023-03-20T03:44:40.003Z,44.70
2023-03-20T03:47:55.308Z,45.01
2023-03-20T03:51:11.856Z,44.47
2023-03-20T03:54:37.898Z,44.53
2023-03-20T03:58:12.117Z,44.57
2023-03-20T04:01:27.590Z,45.09
2023-03-20T04:04:38.672Z,44.89
2023-03-20T04:07:48.420Z,45.18
2023-03-20T04:10:55.921Z,44.99
2023-03-20T04:14:02.337Z,44.97
2023-03-20T04:17:12.164Z,45.43
2023-03-20T04:20:19.211Z,45.43
2023-03-20T04:23:25.958Z,45.47
2023-03-20T04:26:32.599Z,45.57
2023-03-20T04:29:39.299Z,45.63
2023-03-20T04:33:07.495Z,45.81
2023-03-20T04:36:29.596Z,45.79
2023-03-20T04:39:36.953Z,46.14
2023-03-20T04:42:42.448Z,45.78
2023-03-20T04:45:49.021Z,45.93
2023-03-20T04:48:57.274Z,45.82
2023-03-20T04:52:07.936Z,46.43
2023-03-20T04:55:20.008Z,46.13
2023-03-20T04:58:26.276Z,46.64
2023-03-20T05:01:31.966Z,46.59
2023-03-20T05:04:41.874Z,46.65
2023-03-20T05:07:48.074Z,46.35
2023-03-20T05:11:02.267Z,46.59
2023-03-20T05:14:31.702Z,46.71
2023-03-20T05:18:34.073Z,47.26
2023-03-20T05:21:52.787Z,47.04
2023-03-20T05:25:09.765Z,47.70
2023-03-20T05:28:34.261Z,46.67
2023-03-20T05:32:07.749Z,47.50
2023-03-20T05:36:00.400Z,47.27
2023-03-20T05:39:29.161Z,47.27
2023-03-20T05:43:29.355Z,47.16
2023-03-20T05:46:49.611Z,47.62
2023-03-20T05:50:02.017Z,47.17
2023-03-20T05:53:16.773Z,47.48
2023-03-20T05:57:06.155Z,47.98
2023-03-20T06:00:53.562Z,47.54
2023-03-20T06:04:21.941Z,47.32
2023-03-20T06:08:19.932Z,47.49
2023-03-20T06:11:25.501Z,47.89
2023-03-20T06:14:34.635Z,47.53
2023-03-20T06:17:44.768Z,48.23
2023-03-20T06:20:56.768Z,48.10
2023-03-20T06:24:03.767Z,48.09
2023-03-20T06:27:10.123Z,48.66
2023-03-20T06:30:21.217Z,48.74
2023-03-20T06:33:29.144Z,48.01
2023-03-20T06:36:38.219Z,48.18
2023-03-20T06:39:50.560Z,49.02
2023-03-20T06:42:57.963Z,48.95
2023-03-20T06:46:15.898Z,48.05
2023-03-20T06:49:21.626Z,48.74
2023-03-20T06:52:28.226Z,48.82
2023-03-20T06:55:56.410Z,49.33
2023-03-20T06:59:02.801Z,48.94
2023-03-20T07:02:13.064Z,49.82
2023-03-20T07:05:20.771Z,49.17
2023-03-20T07:08:26.405Z,49.98
2023-03-20T07:11:32.893Z,49.54
2023-03-20T07:14:39.320Z,51.50
2023-03-20T07:17:53.392Z,52.06
2023-03-20T07:21:06.534Z,51.37
2023-03-20T07:24:13.644Z,51.11
2023-03-20T07:27:28.045Z,51.11
2023-03-20T07:30:35.815Z,51.94
2023-03-20T07:33:44.187Z,51.44
2023-03-20T07:36:50.550Z,52.36
2023-03-20T07:39:59.126Z,52.94
2023-03-20T07:43:09.566Z,53.84
2023-03-20T07:46:33.412Z,54.04
2023-03-20T07:49:43.508Z,54.14
2023-03-20T07:52:54.294Z,55.13
2023-03-20T07:56:00.909Z,55.27
2023-03-20T07:59:06.888Z,55.53
2023-03-20T08:02:18.988Z,56.40
2023-03-20T08:05:27.567Z,56.83
2023-03-20T08:08:34.212Z,56.07
2023-03-20T08:11:39.683Z,56.37
2023-03-20T08:14:46.369Z,58.07
2023-03-20T08:17:52.018Z,57.29
2023-03-20T08:21:01.134Z,57.79
2023-03-20T08:24:06.893Z,57.06
2023-03-20T08:27:13.284Z,57.32
2023-03-20T08:30:19.442Z,56.47
2023-03-20T08:33:25.968Z,56.66
2023-03-20T08:36:34.409Z,55.99
2023-03-20T08:39:40.680Z,55.35
2023-03-20T08:42:46.513Z,55.50
2023-03-20T08:45:53.057Z,54.36
2023-03-20T08:48:59.249Z,55.20
2023-03-20T08:52:08.878Z,54.83
2023-03-20T08:55:15.999Z,53.88
2023-03-20T08:58:24.634Z,54.26
2023-03-20T09:01:45.988Z,54.98
2023-03-20T09:04:55.066Z,54.43
2023-03-20T09:08:04.254Z,54.62
2023-03-20T09:11:11.077Z,54.82
2023-03-20T09:14:16.911Z,55.20
2023-03-20T09:17:23.252Z,56.33
2023-03-20T09:20:29.221Z,55.71
2023-03-20T09:23:38.395Z,56.57
2023-03-20T09:26:43.972Z,57.10
2023-03-20T09:29:50.350Z,56.75
2023-03-20T09:32:56.105Z,56.79
2023-03-20T09:36:02.412Z,56.27
2023-03-20T09:39:10.652Z,55.65
2023-03-20T09:42:35.390Z,55.48
2023-03-20T09:46:00.164Z,55.77
2023-03-20T09:49:25.700Z,56.27
2023-03-20T09:52:36.408Z,55.63
2023-03-20T09:55:47.862Z,55.34
2023-03-20T09:58:59.240Z,55.56
2023-03-20T10:02:20.438Z,56.17
2023-03-20T10:05:30.866Z,56.89
2023-03-20T10:08:40.232Z,57.65
2023-03-20T10:12:30.982Z,58.19
2023-03-20T10:15:52.364Z,57.85
2023-03-20T10:19:13.485Z,58.09
2023-03-20T10:22:29.402Z,57.04
2023-03-20T10:25:41.133Z,56.93
2023-03-20T10:29:01.501Z,57.09
2023-03-20T10:32:20.209Z,58.13
2023-03-20T10:35:44.402Z,58.05
2023-03-20T10:39:04.827Z,57.67
2023-03-20T10:42:23.059Z,57.84
2023-03-20T10:45:51.959Z,57.91
2023-03-20T10:49:06.727Z,57.25
2023-03-20T10:52:21.069Z,56.58
2023-03-20T10:55:38.225Z,56.50
2023-03-20T10:58:52.988Z,56.25
2023-03-20T11:02:05.395Z,55.84
2023-03-20T11:05:27.936Z,55.44
2023-03-20T11:08:51.197Z,55.39
2023-03-20T11:12:05.426Z,55.29
2023-03-20T11:15:35.165Z,55.51
2023-03-20T11:18:53.321Z,55.13
2023-03-20T11:22:26.386Z,54.49
2023-03-20T11:25:51.100Z,54.47
2023-03-20T11:29:02.281Z,54.08
2023-03-20T11:32:30.299Z,53.17
2023-03-20T11:35:39.616Z,53.08
2023-03-20T11:38:49.253Z,52.88
2023-03-20T11:41:59.299Z,52.07
2023-03-20T11:45:09.388Z,51.52
2023-03-20T11:48:23.876Z,51.17
2023-03-20T11:51:32.704Z,50.87
2023-03-20T11:54:49.557Z,51.48
2023-03-20T11:58:01.295Z,50.88
2023-03-20T12:01:15.515Z,50.79
2023-03-20T12:04:24.185Z,51.11
2023-03-20T12:07:41.267Z,50.47
2023-03-20T12:10:57.258Z,50.90
2023-03-20T12:14:09.795Z,50.16
2023-03-20T12:17:38.459Z,50.22
2023-03-20T12:21:01.098Z,50.86
2023-03-20T12:24:22.718Z,51.66
2023-03-20T12:27:36.946Z,51.95
2023-03-20T12:31:01.648Z,51.91
2023-03-20T12:34:19.335Z,52.50
2023-03-20T12:37:26.829Z,52.73
2023-03-20T12:40:58.122Z,53.13
2023-03-20T12:44:32.470Z,53.45
2023-03-20T12:48:25.714Z,53.49
2023-03-20T12:51:55.616Z,53.80
2023-03-20T12:55:29.850Z,53.77
2023-03-20T12:58:49.417Z,53.96
2023-03-20T13:02:06.892Z,53.67
2023-03-20T13:05:39.030Z,53.36
2023-03-20T13:09:53.126Z,53.50
2023-03-20T13:13:23.446Z,54.02
2023-03-20T13:16:52.563Z,53.52
2023-03-20T13:20:27.291Z,53.05
2023-03-20T13:23:49.354Z,53.23
2023-03-20T13:27:11.033Z,53.14
2023-03-20T13:30:36.437Z,53.17
2023-03-20T13:33:58.493Z,52.59
2023-03-20T13:37:24.404Z,52.63
2023-03-20T13:40:37.183Z,52.73
2023-03-20T13:43:54.597Z,53.06
2023-03-20T13:47:06.772Z,52.92
2023-03-20T13:50:43.938Z,53.81
2023-03-20T13:54:11.142Z,54.08
2023-03-20T13:57:41.505Z,54.02
2023-03-20T14:01:00.574Z,54.32
2023-03-20T14:04:17.072Z,53.83
2023-03-20T14:07:39.077Z,54.13
2023-03-20T14:10:45.435Z,54.20
2023-03-20T14:13:57.855Z,54.60
2023-03-20T14:17:20.825Z,54.56
2023-03-20T14:20:36.554Z,54.86
2023-03-20T14:23:52.046Z,54.62
2023-03-20T14:27:04.216Z,54.66
2023-03-20T14:30:47.232Z,54.72
2023-03-20T14:34:17.763Z,54.66
2023-03-20T14:37:38.515Z,54.78
2023-03-20T14:41:00.288Z,54.76
2023-03-20T14:44:29.680Z,54.65
2023-03-20T14:47:52.267Z,56.65
2023-03-20T14:51:21.703Z,57.90
2023-03-20T14:54:31.872Z,58.32
2023-03-20T14:57:55.477Z,59.04
2023-03-20T15:01:08.843Z,60.76
2023-03-20T15:04:31.536Z,62.91
2023-03-20T15:07:43.046Z,62.27
2023-03-20T15:10:57.045Z,62.75
2023-03-20T15:14:11.773Z,63.19
2023-03-20T15:17:25.487Z,64.18
2023-03-20T15:20:32.055Z,64.55
2023-03-20T15:23:38.292Z,63.98
2023-03-20T15:26:43.849Z,64.00
2023-03-20T15:29:57.812Z,63.76
2023-03-20T15:33:04.165Z,63.55
2023-03-20T15:36:14.545Z,63.74
2023-03-20T15:39:25.133Z,64.45
2023-03-20T15:42:33.710Z,64.02
2023-03-20T15:45:45.605Z,63.85
2023-03-20T15:48:52.621Z,63.28
2023-03-20T15:52:05.374Z,62.90
2023-03-20T15:55:21.473Z,63.25
2023-03-20T15:58:32.185Z,63.00
2023-03-20T16:01:42.146Z,63.60
2023-03-20T16:04:54.816Z,63.01
2023-03-20T16:08:16.305Z,63.56
2023-03-20T16:11:21.963Z,63.45
2023-03-20T16:14:32.842Z,63.77
2023-03-20T16:17:41.415Z,63.19
2023-03-20T16:20:58.001Z,63.16
2023-03-20T16:24:10.165Z,63.57
2023-03-20T16:27:27.363Z,63.17
2023-03-20T16:30:36.390Z,62.96
2023-03-20T16:33:48.011Z,63.53
2023-03-20T16:36:59.492Z,63.86
2023-03-20T16:40:18.043Z,64.00
2023-03-20T16:43:30.830Z,62.29
2023-03-20T16:46:37.455Z,62.47
2023-03-20T16:50:18.452Z,63.03
2023-03-20T16:53:24.990Z,62.58
2023-03-20T16:56:38.384Z,62.75
2023-03-20T16:59:45.250Z,63.16
2023-03-20T17:03:01.123Z,63.07
2023-03-20T17:06:35.912Z,63.10
2023-03-20T17:10:02.864Z,63.46
2023-03-20T17:13:09.505Z,63.41
2023-03-20T17:16:22.612Z,63.59
2023-03-20T17:19:29.301Z,64.35
2023-03-20T17:22:39.061Z,64.16
2023-03-20T17:25:46.012Z,63.96
2023-03-20T17:28:51.729Z,63.70
2023-03-20T17:31:58.074Z,64.19
2023-03-20T17:35:03.674Z,63.91
2023-03-20T17:38:21.553Z,64.27
2023-03-20T17:41:29.018Z,64.20
2023-03-20T17:44:35.503Z,63.69
2023-03-20T17:47:41.461Z,64.42
2023-03-20T17:50:50.754Z,63.85
2023-03-20T17:53:59.605Z,64.48
2023-03-20T17:57:05.955Z,65.36
2023-03-20T18:00:20.580Z,65.11
2023-03-20T18:03:27.279Z,64.79
2023-03-20T18:06:37.158Z,64.75
2023-03-20T18:09:47.906Z,64.92
2023-03-20T18:12:53.437Z,65.03
2023-03-20T18:16:01.918Z,64.85
2023-03-20T18:19:07.720Z,65.57
2023-03-20T18:22:14.532Z,64.22
2023-03-20T18:25:23.570Z,64.92
2023-03-20T18:28:30.000Z,63.73
2023-03-20T18:31:35.711Z,63.59
2023-03-20T18:34:42.211Z,64.11
2023-03-20T18:37:48.004Z,64.66
2023-03-20T18:40:57.169Z,64.05
2023-03-20T18:44:02.881Z,65.25
2023-03-20T18:47:10.095Z,64.37
2023-03-20T18:50:29.896Z,64.39
2023-03-20T18:53:36.312Z,63.42
2023-03-20T18:56:44.901Z,63.64
2023-03-20T18:59:51.316Z,63.50
2023-03-20T19:02:59.154Z,63.17
2023-03-20T19:06:08.039Z,63.28
2023-03-20T19:09:15.977Z,62.87
2023-03-20T19:12:25.156Z,62.88
2023-03-20T19:15:35.755Z,63.05
2023-03-20T19:18:42.245Z,63.92
2023-03-20T19:21:48.062Z,62.93
2023-03-20T19:24:54.578Z,63.63
2023-03-20T19:28:03.648Z,63.65
2023-03-20T19:31:10.823Z,63.18
2023-03-20T19:34:51.902Z,63.58
2023-03-20T19:37:42.855Z,63.54
2023-03-20T19:40:53.312Z,63.06
2023-03-20T19:44:03.248Z,63.20
2023-03-20T19:47:08.972Z,62.74
2023-03-20T19:50:31.972Z,63.45
2023-03-20T19:53:37.642Z,62.83
2023-03-20T19:56:45.709Z,63.47
2023-03-20T19:59:54.290Z,62.91
2023-03-20T20:03:01.616Z,63.44
2023-03-20T20:06:08.181Z,63.11
2023-03-20T20:09:14.812Z,63.22
2023-03-20T20:12:20.527Z,63.81
2023-03-20T20:15:32.318Z,63.39
2023-03-20T20:18:38.343Z,63.51
2023-03-20T20:22:25.232Z,64.06
2023-03-20T20:25:12.738Z,63.19
2023-03-20T20:28:22.210Z,63.38
2023-03-20T20:31:34.919Z,63.13
2023-03-20T20:38:37.136Z,64.30
2023-03-20T20:41:34.913Z,64.28
2023-03-20T20:44:40.508Z,64.16
2023-03-20T20:47:52.046Z,64.14
2023-03-20T20:51:03.713Z,64.49
2023-03-20T20:54:10.860Z,64.49
2023-03-20T20:57:16.422Z,64.43
2023-03-20T21:00:37.222Z,64.37
2023-03-20T21:03:54.430Z,64.38
2023-03-20T21:07:10.819Z,64.53
2023-03-20T21:10:21.428Z,65.73
2023-03-20T21:13:28.168Z,66.23
2023-03-20T21:16:33.804Z,66.99
2023-03-20T21:19:45.645Z,66.58
2023-03-20T21:22:51.001Z,67.62
2023-03-20T21:25:57.497Z,68.64
2023-03-20T21:29:02.895Z,69.19
2023-03-20T21:32:11.413Z,69.41
2023-03-20T21:35:19.845Z,71.18
2023-03-20T21:41:52.189Z,71.06
2023-03-20T21:45:56.035Z,71.01
2023-03-20T21:48:58.817Z,72.69
2023-03-20T21:59:24.118Z,72.94
2023-03-20T22:02:25.292Z,72.43
2023-03-20T22:13:16.252Z,72.94
2023-03-20T22:16:41.106Z,73.29
2023-03-20T22:30:26.027Z,73.48
2023-03-20T22:34:05.192Z,72.55
2023-03-20T22:37:24.618Z,72.29
2023-03-20T22:44:24.750Z,72.76
2023-03-20T22:46:55.902Z,72.26
2023-03-20T22:50:01.382Z,72.24
2023-03-20T22:53:07.665Z,72.17
2023-03-20T22:56:15.221Z,73.34
2023-03-20T22:59:24.218Z,72.15
2023-03-20T23:02:29.589Z,71.89
2023-03-20T23:05:36.679Z,71.88
2023-03-20T23:08:50.705Z,71.63
2023-03-20T23:12:00.202Z,71.11
2023-03-20T23:15:10.363Z,71.19
2023-03-20T23:18:17.256Z,71.58
2023-03-20T23:21:22.690Z,72.06
2023-03-20T23:24:29.345Z,72.26
2023-03-20T23:27:35.040Z,71.75
2023-03-20T23:30:49.821Z,72.45
2023-03-20T23:34:01.229Z,71.85
2023-03-20T23:37:07.636Z,71.97
2023-03-20T23:40:14.862Z,71.70
2023-03-20T23:43:21.794Z,72.17
2023-03-20T23:46:30.062Z,71.92
2023-03-20T23:49:36.357Z,71.68
2023-03-20T23:56:09.594Z,71.91
2023-03-20T23:59:21.607Z,71.25
